createdAt,value
2017-10-24T00:00:23.166Z,3.30
2017-10-24T00:02:49.881Z,3.97
2017-10-24T00:05:16.534Z,4.43
2017-10-24T00:07:43.291Z,4.40
2017-10-24T00:10:10.035Z,3.60
2017-10-24T00:12:36.685Z,4.57
2017-10-24T00:15:03.316Z,4.33
2017-10-24T00:17:29.980Z,3.50
2017-10-24T00:19:56.616Z,4.13
2017-10-24T00:22:23.288Z,2.93
2017-10-24T00:24:49.925Z,3.47
2017-10-24T00:27:16.685Z,4.23
2017-10-24T00:29:43.322Z,3.23
2017-10-24T00:32:09.975Z,4.00
2017-10-24T00:34:36.647Z,4.37
2017-10-24T00:37:03.301Z,4.30
2017-10-24T00:39:30.041Z,3.93
2017-10-24T00:41:56.791Z,4.50
2017-10-24T00:44:23.447Z,3.40
2017-10-24T00:46:50.836Z,4.50
2017-10-24T00:49:17.469Z,3.33
2017-10-24T00:51:44.229Z,3.73
2017-10-24T00:54:10.872Z,2.87
2017-10-24T00:56:37.645Z,4.70
2017-10-24T00:59:04.285Z,3.87
2017-10-24T01:01:30.937Z,3.90
2017-10-24T01:03:57.569Z,2.97
2017-10-24T01:06:24.326Z,2.40
2017-10-24T01:08:50.969Z,6.27
2017-10-24T01:11:17.634Z,3.40
2017-10-24T01:13:44.264Z,3.57
2017-10-24T01:16:10.929Z,3.40
2017-10-24T01:18:37.557Z,3.10
2017-10-24T01:21:04.205Z,3.27
2017-10-24T01:23:30.846Z,3.10
2017-10-24T01:25:57.486Z,2.37
2017-10-24T01:28:24.148Z,2.83
2017-10-24T01:30:50.805Z,3.77
2017-10-24T01:33:17.461Z,3.50
2017-10-24T01:35:44.113Z,2.50
2017-10-24T01:38:10.769Z,3.03
2017-10-24T01:40:37.409Z,3.77
2017-10-24T01:43:04.061Z,3.27
2017-10-24T01:45:30.695Z,3.73
2017-10-24T01:47:57.392Z,3.67
2017-10-24T01:50:24.033Z,2.93
2017-10-24T01:52:50.722Z,3.00
2017-10-24T01:55:17.398Z,2.63
2017-10-24T01:57:44.055Z,2.70
2017-10-24T02:00:10.704Z,3.40
2017-10-24T02:02:37.406Z,2.43
2017-10-24T02:05:04.041Z,3.13
2017-10-24T02:07:30.709Z,3.50
2017-10-24T02:09:57.356Z,2.43
2017-10-24T02:12:24.009Z,2.73
2017-10-24T02:14:50.694Z,3.07
2017-10-24T02:17:17.353Z,3.47
2017-10-24T02:19:44.053Z,3.27
2017-10-24T02:22:10.713Z,2.57
2017-10-24T02:24:37.366Z,2.90
2017-10-24T02:27:04.017Z,3.10
2017-10-24T02:29:30.658Z,4.20
2017-10-24T02:31:57.309Z,2.90
2017-10-24T02:34:23.965Z,3.50
2017-10-24T02:36:50.615Z,2.87
2017-10-24T02:39:17.248Z,2.57
2017-10-24T02:41:43.913Z,2.83
2017-10-24T02:44:10.548Z,3.30
2017-10-24T02:46:37.205Z,2.90
2017-10-24T02:49:03.841Z,2.70
2017-10-24T02:51:30.488Z,2.70
2017-10-24T02:53:57.145Z,3.47
2017-10-24T02:56:23.777Z,3.43
2017-10-24T02:58:50.436Z,4.43
2017-10-24T03:01:17.118Z,3.00
2017-10-24T03:03:43.772Z,2.67
2017-10-24T03:06:10.422Z,2.70
2017-10-24T03:08:37.171Z,3.03
2017-10-24T03:11:03.881Z,4.30
2017-10-24T03:13:30.681Z,2.80
2017-10-24T03:15:57.308Z,2.80
2017-10-24T03:18:23.976Z,2.97
2017-10-24T03:20:50.613Z,3.93
2017-10-24T03:23:17.284Z,2.83
2017-10-24T03:25:43.917Z,2.90
2017-10-24T03:28:10.569Z,3.00
2017-10-24T03:30:37.212Z,3.33
2017-10-24T03:33:03.866Z,2.60
2017-10-24T03:35:30.523Z,2.50
2017-10-24T03:37:57.177Z,2.60
2017-10-24T03:40:23.812Z,3.00
2017-10-24T03:42:50.469Z,3.00
2017-10-24T03:45:17.101Z,2.43
2017-10-24T03:47:43.752Z,2.33
2017-10-24T03:52:43.749Z,3.03
2017-10-24T03:55:10.406Z,1.90
2017-10-24T03:57:37.053Z,2.70
2017-10-24T04:00:03.698Z,2.73
2017-10-24T04:02:30.349Z,2.77
2017-10-24T04:04:56.993Z,2.40
2017-10-24T04:07:23.643Z,2.77
2017-10-24T04:09:50.405Z,2.20
2017-10-24T04:12:17.059Z,3.00
2017-10-24T04:14:43.693Z,4.70
2017-10-24T04:17:10.340Z,2.70
2017-10-24T04:19:36.984Z,3.00
2017-10-24T04:22:03.618Z,2.53
2017-10-24T04:24:30.268Z,2.63
2017-10-24T04:26:56.962Z,3.80
2017-10-24T04:29:23.610Z,2.17
2017-10-24T04:31:50.245Z,2.23
2017-10-24T04:34:16.902Z,2.50
2017-10-24T04:36:43.533Z,2.63
2017-10-24T04:39:10.182Z,2.47
2017-10-24T04:41:36.820Z,2.37
2017-10-24T04:44:03.513Z,2.30
2017-10-24T04:46:30.160Z,2.67
2017-10-24T04:48:56.911Z,2.00
2017-10-24T04:51:23.540Z,2.50
2017-10-24T04:53:50.222Z,3.17
2017-10-24T04:56:16.854Z,2.20
2017-10-24T04:58:43.683Z,2.30
2017-10-24T05:01:10.317Z,2.37
2017-10-24T05:03:37.139Z,3.40
2017-10-24T05:06:03.770Z,2.57
2017-10-24T05:08:30.428Z,2.80
2017-10-24T05:10:57.057Z,2.67
2017-10-24T05:13:23.709Z,2.10
2017-10-24T05:15:50.381Z,2.80
2017-10-24T05:18:17.320Z,2.63
2017-10-24T05:20:43.952Z,2.20
2017-10-24T05:23:10.601Z,2.43
2017-10-24T05:25:37.254Z,2.63
2017-10-24T05:28:03.904Z,2.40
2017-10-24T05:30:30.628Z,2.57
2017-10-24T05:32:57.345Z,2.73
2017-10-24T05:35:23.978Z,3.10
2017-10-24T05:37:50.633Z,2.20
2017-10-24T05:40:17.286Z,1.93
2017-10-24T05:42:43.917Z,2.50
2017-10-24T05:45:10.569Z,2.43
2017-10-24T05:47:37.250Z,2.50
2017-10-24T05:50:03.900Z,2.10
2017-10-24T05:52:30.539Z,2.43
2017-10-24T05:54:57.197Z,2.07
2017-10-24T05:57:23.833Z,2.00
2017-10-24T05:59:50.488Z,1.97
2017-10-24T06:02:17.148Z,3.10
2017-10-24T06:04:43.792Z,2.63
2017-10-24T06:07:10.457Z,2.53
2017-10-24T06:09:37.204Z,2.83
2017-10-24T06:12:03.840Z,4.47
2017-10-24T06:14:30.496Z,2.83
2017-10-24T06:16:57.130Z,2.23
2017-10-24T06:19:23.796Z,2.77
2017-10-24T06:21:50.429Z,4.23
2017-10-24T06:24:17.093Z,2.90
2017-10-24T06:26:43.725Z,5.37
2017-10-24T06:29:10.385Z,5.63
2017-10-24T06:31:37.026Z,6.20
2017-10-24T06:34:03.672Z,4.30
2017-10-24T06:36:30.309Z,4.20
2017-10-24T06:38:56.972Z,6.57
2017-10-24T06:41:23.608Z,4.53
2017-10-24T06:43:50.266Z,6.83
2017-10-24T06:46:16.929Z,4.23
2017-10-24T06:48:43.623Z,3.80
2017-10-24T06:51:10.252Z,3.80
2017-10-24T06:53:36.904Z,4.30
2017-10-24T06:56:03.537Z,2.47
2017-10-24T06:58:30.185Z,4.77
2017-10-24T07:00:56.825Z,6.37
2017-10-24T07:03:23.453Z,3.20
2017-10-24T07:05:50.116Z,4.67
2017-10-24T07:08:16.820Z,3.50
2017-10-24T07:10:43.468Z,5.93
2017-10-24T07:13:10.105Z,5.83
2017-10-24T07:15:36.752Z,4.53
2017-10-24T07:18:03.389Z,5.57
2017-10-24T07:20:30.041Z,2.77
2017-10-24T07:22:56.732Z,7.30
2017-10-24T07:25:23.390Z,3.20
2017-10-24T07:27:50.128Z,6.90
2017-10-24T07:30:16.783Z,4.77
2017-10-24T07:32:43.425Z,3.47
2017-10-24T07:35:10.190Z,5.97
2017-10-24T07:37:37.884Z,4.83
2017-10-24T07:40:04.600Z,21.40
2017-10-24T07:42:31.241Z,13.83
2017-10-24T07:44:57.922Z,6.20
2017-10-24T07:47:24.553Z,7.10
2017-10-24T07:49:51.227Z,11.87
2017-10-24T07:52:17.865Z,14.40
2017-10-24T07:54:44.532Z,20.00
2017-10-24T07:57:11.168Z,12.77
2017-10-24T07:59:37.827Z,19.17
2017-10-24T08:02:04.500Z,14.90
2017-10-24T08:04:31.151Z,19.57
2017-10-24T08:06:57.785Z,15.77
2017-10-24T08:09:24.440Z,19.23
2017-10-24T08:11:51.085Z,16.70
2017-10-24T08:14:17.758Z,18.33
2017-10-24T08:16:44.397Z,17.53
2017-10-24T08:19:11.128Z,18.47
2017-10-24T08:21:37.766Z,14.63
2017-10-24T08:24:04.418Z,14.07
2017-10-24T08:26:31.072Z,12.17
2017-10-24T08:28:57.737Z,13.20
2017-10-24T08:31:24.388Z,23.90
2017-10-24T08:33:51.020Z,12.50
2017-10-24T08:36:17.672Z,13.37
2017-10-24T08:38:44.304Z,13.70
2017-10-24T08:41:10.954Z,15.30
2017-10-24T08:43:37.588Z,12.53
2017-10-24T08:46:04.250Z,14.03
2017-10-24T08:48:30.889Z,8.60
2017-10-24T08:50:57.543Z,13.57
2017-10-24T08:53:24.186Z,15.57
2017-10-24T08:55:50.865Z,11.87
2017-10-24T08:58:17.510Z,14.50
2017-10-24T09:00:44.169Z,13.80
2017-10-24T09:03:10.807Z,11.30
2017-10-24T09:05:38.125Z,12.13
2017-10-24T09:08:04.769Z,11.80
2017-10-24T09:10:37.245Z,11.30
2017-10-24T09:13:03.885Z,11.70
2017-10-24T09:15:33.422Z,10.57
2017-10-24T09:18:00.065Z,8.17
2017-10-24T09:20:26.705Z,10.23
2017-10-24T09:22:53.353Z,9.43
2017-10-24T09:25:19.984Z,8.50
2017-10-24T09:27:46.636Z,8.10
2017-10-24T09:30:13.271Z,10.50
2017-10-24T09:32:39.923Z,10.50
2017-10-24T09:35:06.553Z,7.53
2017-10-24T09:37:33.203Z,7.83
2017-10-24T09:39:59.837Z,12.13
2017-10-24T09:42:26.493Z,11.20
2017-10-24T09:44:53.153Z,11.03
2017-10-24T09:47:19.793Z,10.73
2017-10-24T09:49:52.344Z,7.53
2017-10-24T09:52:18.980Z,11.17
2017-10-24T09:54:45.765Z,9.70
2017-10-24T09:57:12.397Z,10.00
2017-10-24T09:59:39.045Z,8.77
2017-10-24T10:02:05.698Z,8.13
2017-10-24T10:04:32.367Z,8.77
2017-10-24T10:06:59.120Z,8.37
2017-10-24T10:09:25.753Z,9.10
2017-10-24T10:11:52.437Z,7.77
2017-10-24T10:14:19.177Z,11.13
2017-10-24T10:16:45.813Z,7.40
2017-10-24T10:19:12.468Z,7.27
2017-10-24T10:21:39.125Z,8.17
2017-10-24T10:24:05.890Z,7.37
2017-10-24T10:26:32.520Z,8.50
2017-10-24T10:28:59.185Z,6.57
2017-10-24T10:31:25.811Z,6.83
2017-10-24T10:33:52.481Z,7.33
2017-10-24T10:36:19.111Z,8.20
2017-10-24T10:38:45.741Z,8.93
2017-10-24T10:41:12.441Z,11.77
2017-10-24T10:43:39.072Z,8.67
2017-10-24T10:46:05.729Z,7.20
2017-10-24T10:48:32.360Z,8.40
2017-10-24T10:50:59.052Z,8.23
2017-10-24T10:53:25.685Z,6.27
2017-10-24T10:55:52.449Z,6.70
2017-10-24T10:58:19.084Z,7.97
2017-10-24T11:00:45.720Z,7.80
2017-10-24T11:03:12.377Z,5.97
2017-10-24T11:05:39.029Z,6.40
2017-10-24T11:08:05.680Z,5.40
2017-10-24T11:10:34.260Z,8.60
2017-10-24T11:13:00.916Z,7.37
2017-10-24T11:15:27.549Z,6.10
2017-10-24T11:17:54.189Z,5.23
2017-10-24T11:20:20.843Z,7.93
2017-10-24T11:22:47.548Z,7.67
2017-10-24T11:25:14.296Z,6.27
2017-10-24T11:27:40.929Z,7.17
2017-10-24T11:30:07.560Z,8.97
2017-10-24T11:32:34.221Z,8.10
2017-10-24T11:35:00.862Z,6.43
2017-10-24T11:37:27.569Z,7.40
2017-10-24T11:39:54.219Z,5.67
2017-10-24T11:42:20.884Z,6.43
2017-10-24T11:44:47.517Z,4.70
2017-10-24T11:47:14.156Z,6.60
2017-10-24T11:49:40.810Z,10.10
2017-10-24T11:52:07.466Z,6.07
2017-10-24T11:54:34.210Z,7.30
2017-10-24T11:57:00.839Z,7.27
2017-10-24T11:59:27.512Z,8.53
2017-10-24T12:01:54.148Z,5.40
2017-10-24T12:04:20.786Z,4.40
2017-10-24T12:06:47.438Z,7.20
2017-10-24T12:09:14.076Z,7.80
2017-10-24T12:11:40.793Z,6.07
2017-10-24T12:14:07.522Z,6.40
2017-10-24T12:16:34.186Z,9.13
2017-10-24T12:19:00.839Z,4.97
2017-10-24T12:21:27.468Z,6.30
2017-10-24T12:23:54.112Z,6.03
2017-10-24T12:26:20.777Z,6.40
2017-10-24T12:28:47.512Z,8.60
2017-10-24T12:31:14.151Z,5.17
2017-10-24T12:33:40.805Z,6.83
2017-10-24T12:36:07.440Z,5.87
2017-10-24T12:38:34.077Z,5.47
2017-10-24T12:41:00.729Z,6.10
2017-10-24T12:43:27.360Z,6.00
2017-10-24T12:45:54.024Z,5.47
2017-10-24T12:48:21.175Z,5.70
2017-10-24T12:50:47.824Z,4.87
2017-10-24T12:53:14.458Z,4.30
2017-10-24T12:55:41.184Z,5.40
2017-10-24T12:58:10.381Z,5.70
2017-10-24T13:00:37.036Z,5.00
2017-10-24T13:03:03.669Z,6.00
2017-10-24T13:05:30.320Z,5.33
2017-10-24T13:07:56.956Z,8.10
2017-10-24T13:10:23.645Z,5.20
2017-10-24T13:12:50.278Z,4.80
2017-10-24T13:15:16.917Z,6.73
2017-10-24T13:17:43.568Z,5.97
2017-10-24T13:20:10.213Z,6.57
2017-10-24T13:22:36.926Z,4.93
2017-10-24T13:25:03.574Z,3.90
2017-10-24T13:27:30.228Z,4.37
2017-10-24T13:29:56.874Z,4.33
2017-10-24T13:32:23.554Z,5.43
2017-10-24T13:34:50.219Z,6.77
2017-10-24T13:37:16.869Z,4.20
2017-10-24T13:39:43.573Z,3.77
2017-10-24T13:42:10.204Z,5.27
2017-10-24T13:44:36.860Z,4.33
2017-10-24T13:47:03.524Z,5.67
2017-10-24T13:49:30.189Z,5.33
2017-10-24T13:51:56.816Z,5.00
2017-10-24T13:54:23.464Z,3.17
2017-10-24T13:56:50.122Z,4.10
2017-10-24T13:59:16.785Z,4.33
2017-10-24T14:01:43.445Z,4.60
2017-10-24T14:04:15.745Z,5.87
2017-10-24T14:06:48.204Z,3.13
2017-10-24T14:09:20.809Z,8.20
2017-10-24T14:11:48.401Z,5.37
2017-10-24T14:14:15.037Z,4.20
2017-10-24T14:16:41.705Z,4.53
2017-10-24T14:19:08.336Z,6.43
2017-10-24T14:21:34.968Z,3.97
2017-10-24T14:24:01.618Z,5.03
2017-10-24T14:26:28.250Z,3.57
2017-10-24T14:28:54.920Z,4.77
2017-10-24T14:31:21.617Z,3.50
2017-10-24T14:33:48.281Z,4.33
2017-10-24T14:36:14.920Z,3.70
2017-10-24T14:38:41.723Z,3.80
2017-10-24T14:41:08.364Z,6.17
2017-10-24T14:43:35.033Z,5.60
2017-10-24T14:46:01.732Z,5.40
2017-10-24T14:48:28.432Z,4.93
2017-10-24T14:50:55.084Z,3.27
2017-10-24T14:53:21.731Z,6.70
2017-10-24T14:55:48.380Z,4.03
2017-10-24T14:58:15.018Z,3.00
2017-10-24T15:00:41.676Z,3.27
2017-10-24T15:03:08.313Z,3.77
2017-10-24T15:05:34.989Z,4.30
2017-10-24T15:08:01.617Z,4.53
2017-10-24T15:10:28.288Z,2.77
2017-10-24T15:12:54.936Z,3.50
2017-10-24T15:15:21.598Z,5.10
2017-10-24T15:17:48.276Z,3.50
2017-10-24T15:20:14.904Z,3.80
2017-10-24T15:22:41.549Z,4.40
2017-10-24T15:25:08.181Z,5.20
2017-10-24T15:27:34.940Z,3.07
2017-10-24T15:30:01.596Z,4.70
2017-10-24T15:32:28.225Z,5.87
2017-10-24T15:34:54.880Z,3.80
2017-10-24T15:37:21.521Z,3.50
2017-10-24T15:39:48.200Z,4.37
2017-10-24T15:42:14.832Z,3.53
2017-10-24T15:44:41.485Z,4.03
2017-10-24T15:47:08.160Z,3.97
2017-10-24T15:49:34.825Z,3.77
2017-10-24T15:52:01.478Z,4.67
2017-10-24T15:54:28.217Z,3.33
2017-10-24T15:56:54.970Z,3.03
2017-10-24T15:59:22.752Z,3.13
2017-10-24T16:01:49.424Z,2.70
2017-10-24T16:04:16.056Z,3.43
2017-10-24T16:06:42.713Z,3.10
2017-10-24T16:09:09.354Z,3.07
2017-10-24T16:11:36.013Z,3.17
2017-10-24T16:14:02.650Z,3.10
2017-10-24T16:16:29.389Z,3.60
2017-10-24T16:18:56.468Z,3.97
2017-10-24T16:21:23.821Z,2.77
2017-10-24T16:23:50.476Z,3.73
2017-10-24T16:26:17.233Z,4.00
2017-10-24T16:28:43.889Z,2.23
2017-10-24T16:31:10.629Z,4.53
2017-10-24T16:33:37.281Z,5.70
2017-10-24T16:36:03.908Z,4.70
2017-10-24T16:38:30.576Z,3.03
2017-10-24T16:40:57.228Z,3.53
2017-10-24T16:43:24.287Z,6.33
2017-10-24T16:45:51.176Z,4.70
2017-10-24T16:48:17.828Z,3.63
2017-10-24T16:50:44.476Z,2.90
2017-10-24T16:53:11.212Z,3.10
2017-10-24T16:55:37.948Z,2.87
2017-10-24T16:58:04.601Z,4.10
2017-10-24T17:00:31.248Z,4.03
2017-10-24T17:02:57.884Z,5.50
2017-10-24T17:05:25.700Z,3.73
2017-10-24T17:07:52.548Z,5.70
2017-10-24T17:10:19.395Z,6.30
2017-10-24T17:12:46.044Z,7.30
2017-10-24T17:15:12.736Z,4.77
2017-10-24T17:17:39.400Z,3.73
2017-10-24T17:20:06.099Z,5.53
2017-10-24T17:22:32.745Z,4.10
2017-10-24T17:24:59.441Z,4.40
2017-10-24T17:27:26.376Z,6.10
2017-10-24T17:29:53.432Z,4.90
2017-10-24T17:32:20.170Z,7.63
2017-10-24T17:34:46.830Z,3.43
2017-10-24T17:37:13.461Z,4.23
2017-10-24T17:39:40.136Z,4.53
2017-10-24T17:42:06.763Z,2.83
2017-10-24T17:44:33.395Z,4.20
2017-10-24T17:47:00.041Z,3.47
2017-10-24T17:49:27.231Z,6.10
2017-10-24T17:51:55.993Z,4.20
2017-10-24T17:54:23.765Z,11.80
2017-10-24T17:56:50.435Z,5.03
2017-10-24T17:59:17.148Z,5.07
2017-10-24T18:01:43.860Z,4.17
2017-10-24T18:04:10.489Z,3.63
2017-10-24T18:06:37.177Z,3.13
2017-10-24T18:09:03.921Z,4.43
2017-10-24T18:11:30.613Z,7.10
2017-10-24T18:13:58.039Z,7.30
2017-10-24T18:16:25.838Z,5.53
2017-10-24T18:18:53.269Z,7.33
2017-10-24T18:21:21.217Z,4.30
2017-10-24T18:23:48.233Z,3.23
2017-10-24T18:26:14.880Z,5.33
2017-10-24T18:28:41.648Z,3.57
2017-10-24T18:31:08.386Z,3.33
2017-10-24T18:33:35.037Z,3.30
2017-10-24T18:36:01.699Z,4.07
2017-10-24T18:38:28.488Z,3.67
2017-10-24T18:40:55.233Z,6.30
2017-10-24T18:43:23.795Z,4.40
2017-10-24T18:45:51.278Z,3.87
2017-10-24T18:48:18.932Z,4.73
2017-10-24T18:50:45.965Z,3.33
2017-10-24T18:53:14.149Z,3.73
2017-10-24T18:55:41.061Z,2.80
2017-10-24T18:58:07.713Z,3.50
2017-10-24T19:00:34.345Z,4.00
2017-10-24T19:03:01.138Z,3.20
2017-10-24T19:05:27.783Z,4.00
2017-10-24T19:07:54.448Z,2.50
2017-10-24T19:10:22.395Z,3.60
2017-10-24T19:12:49.185Z,5.43
2017-10-24T19:15:15.870Z,2.93
2017-10-24T19:17:42.544Z,3.90
2017-10-24T19:20:09.177Z,3.27
2017-10-24T19:22:35.849Z,3.17
2017-10-24T19:25:02.482Z,3.20
2017-10-24T19:27:29.136Z,2.83
2017-10-24T19:29:56.753Z,3.87
2017-10-24T19:32:23.584Z,3.23
2017-10-24T19:34:50.245Z,5.10
2017-10-24T19:37:16.885Z,3.10
2017-10-24T19:39:43.713Z,2.63
2017-10-24T19:42:10.465Z,3.30
2017-10-24T19:44:37.121Z,4.17
2017-10-24T19:47:03.782Z,2.40
2017-10-24T19:49:30.417Z,2.77
2017-10-24T19:51:57.963Z,3.77
2017-10-24T19:54:24.953Z,2.90
2017-10-24T19:56:51.832Z,3.10
2017-10-24T19:59:18.482Z,2.87
2017-10-24T20:01:45.137Z,3.57
2017-10-24T20:04:11.903Z,3.43
2017-10-24T20:06:38.581Z,3.63
2017-10-24T20:09:05.591Z,5.10
2017-10-24T20:11:32.344Z,4.17
2017-10-24T20:13:58.985Z,3.80
2017-10-24T20:16:26.224Z,4.83
2017-10-24T20:18:52.987Z,3.67
2017-10-24T20:21:19.672Z,2.67
2017-10-24T20:23:46.311Z,4.30
2017-10-24T20:26:13.064Z,3.27
2017-10-24T20:28:39.760Z,2.17
2017-10-24T20:31:06.397Z,3.00
2017-10-24T20:33:33.105Z,3.00
2017-10-24T20:35:59.759Z,6.03
2017-10-24T20:38:26.503Z,3.10
2017-10-24T20:40:53.153Z,3.00
2017-10-24T20:43:19.828Z,3.07
2017-10-24T20:45:47.492Z,2.90
2017-10-24T20:48:15.082Z,2.67
2017-10-24T20:50:41.737Z,5.07
2017-10-24T20:53:08.393Z,3.30
2017-10-24T20:55:35.328Z,2.97
2017-10-24T20:58:02.129Z,2.60
2017-10-24T21:00:28.823Z,3.40
2017-10-24T21:02:55.473Z,4.10
2017-10-24T21:05:22.233Z,3.33
2017-10-24T21:07:58.892Z,3.87
2017-10-24T21:10:25.564Z,3.17
2017-10-24T21:12:52.360Z,3.87
2017-10-24T21:15:19.597Z,2.33
2017-10-24T21:17:46.337Z,2.70
2017-10-24T21:20:13.239Z,4.63
2017-10-24T21:22:39.878Z,2.83
2017-10-24T21:25:06.529Z,2.23
2017-10-24T21:27:33.239Z,2.00
2017-10-24T21:30:00.313Z,3.37
2017-10-24T21:32:27.061Z,3.30
2017-10-24T21:34:55.801Z,3.50
2017-10-24T21:37:23.448Z,2.83
2017-10-24T21:39:50.572Z,2.70
2017-10-24T21:42:17.490Z,2.40
2017-10-24T21:44:44.125Z,3.50
2017-10-24T21:47:10.858Z,2.90
2017-10-24T21:49:37.494Z,4.13
2017-10-24T21:52:04.156Z,1.97
2017-10-24T21:54:30.786Z,2.30
2017-10-24T21:56:57.457Z,2.93
2017-10-24T21:59:25.149Z,2.77
2017-10-24T22:01:51.811Z,2.47
2017-10-24T22:04:18.454Z,3.30
2017-10-24T22:06:45.119Z,2.30
2017-10-24T22:09:11.940Z,2.57
2017-10-24T22:11:38.572Z,2.27
2017-10-24T22:14:05.254Z,2.47
2017-10-24T22:16:31.884Z,2.30
2017-10-24T22:18:58.638Z,2.80
2017-10-24T22:21:27.166Z,2.60
2017-10-24T22:23:54.033Z,2.63
2017-10-24T22:26:20.673Z,2.00
2017-10-24T22:28:47.345Z,2.87
2017-10-24T22:31:14.060Z,3.97
2017-10-24T22:33:40.720Z,2.00
2017-10-24T22:36:07.356Z,3.20
2017-10-24T22:38:34.006Z,2.53
2017-10-24T22:41:00.769Z,3.47
2017-10-24T22:43:28.648Z,3.17
2017-10-24T22:45:56.753Z,2.93
2017-10-24T22:48:23.528Z,2.60
2017-10-24T22:50:50.180Z,2.40
2017-10-24T22:53:16.917Z,2.70
2017-10-24T22:55:43.593Z,2.17
2017-10-24T22:58:10.239Z,2.47
2017-10-24T23:00:36.888Z,2.40
2017-10-24T23:03:03.777Z,2.73
2017-10-24T23:05:30.452Z,2.80
2017-10-24T23:07:58.385Z,3.00
2017-10-24T23:10:25.242Z,3.10
2017-10-24T23:12:51.877Z,2.10
2017-10-24T23:15:18.573Z,3.03
2017-10-24T23:17:55.361Z,1.93
2017-10-24T23:20:22.165Z,2.27
2017-10-24T23:22:49.095Z,2.50
2017-10-24T23:25:15.821Z,2.27
2017-10-24T23:27:42.469Z,1.97
2017-10-24T23:30:09.128Z,3.50
2017-10-24T23:32:35.875Z,2.40
2017-10-24T23:35:02.651Z,3.10
2017-10-24T23:37:29.511Z,2.70
2017-10-24T23:39:56.784Z,3.03
2017-10-24T23:42:23.504Z,2.47
2017-10-24T23:44:50.140Z,2.30
2017-10-24T23:47:16.822Z,4.50
2017-10-24T23:49:43.565Z,2.60
2017-10-24T23:52:10.210Z,2.53
2017-10-24T23:54:36.860Z,3.43
2017-10-24T23:57:03.496Z,3.30
2017-10-24T23:59:31.106Z,2.70
